Currently 55°F in Riverside (Presidential Park), California, USA
55°F
61°F / 55°F
3 mph NE
0.00"
Wednesday, April 25, 2018 3:36 AM PDT

Riverside (Presidential Park), California Weather Summary
Last 36 Hours

Temperature Winds Hourly Humidity Dewpoint
Time Report Norm Report Norm Max Gusts Precip. Rpt. Norm Rpt. Norm Pressure
1Wed 03:36 AM  54.9°F  57°F  3 mph NE  2 mph  2 mph  0.00"  77%  70%  48°F  47°F  30.03"
3Wed 03:24 AM  54.8°F  57°F  calm  2 mph  2 mph  ----  77%  70%  47°F  47°F  30.03"
Wed 03:00 AM  55.6°F  57°F  calm  2 mph  4 mph  0.00"  76%  69%  48°F  47°F  30.03"
Wed 02:00 AM  57.4°F  58°F  1 mph SE  2 mph  3 mph  0.00"  72%  67%  48°F  47°F  30.02"
Wed 01:00 AM  59.4°F  59°F  calm  2 mph  3 mph  0.00"  62%  65%  46°F  47°F  30.03"
2Wed 12:02 AM  61.4°F  61°F  2 mph S  2 mph  3 mph  ----  51%  62%  42°F  47°F  30.02"
Wed 12:00 AM  61.3°F  61°F  2 mph S  2 mph  3 mph  0.00"  51%  62%  42°F  47°F  30.02"
Tue 11:00 PM  63.1°F  62°F  calm  2 mph  none  0.00"  46%  59%  41°F  47°F  30.00"
Tue 10:00 PM  66.2°F  64°F  calm  2 mph  3 mph  0.00"  40%  54%  40°F  47°F  30.01"
Tue 09:00 PM  68.3°F  66°F  1 mph W  3 mph  6 mph  0.00"  37%  50%  40°F  47°F  29.99"
Tue 08:00 PM  71.9°F  69°F  4 mph W  5 mph  9 mph  0.00"  21%  46%  28°F  46°F  29.98"
Tue 07:00 PM  75.2°F  72°F  4 mph W  6 mph  14 mph  0.00"  16%  41%  24°F  46°F  29.96"
Tue 06:00 PM  77.7°F  74°F  6 mph W  8 mph  18 mph  0.00"  14%  37%  23°F  45°F  29.95"
Tue 05:00 PM  80.6°F  76°F  9 mph W  9 mph  17 mph  0.00"  13%  35%  22°F  46°F  29.94"
Tue 04:00 PM  81.2°F  77°F  11 mph W  9 mph  16 mph  0.00"  15%  33%  28°F  45°F  29.94"
Tue 03:00 PM  83.3°F  78°F  9 mph SW  7 mph  17 mph  0.00"  11%  32%  22°F  45°F  29.95"
Tue 02:00 PM  82.1°F  77°F  8 mph W  6 mph  20 mph  0.00"  14%  33%  27°F  45°F  29.96"
Tue 01:00 PM  80.8°F  76°F  6 mph SW  6 mph  15 mph  0.00"  24%  35%  39°F  45°F  29.97"
Tue 12:00 PM  78.0°F  73°F  5 mph W  5 mph  11 mph  0.00"  31%  39%  44°F  46°F  29.99"
Tue 11:00 AM  75.7°F  71°F  1 mph SE  4 mph  7 mph  0.00"  27%  45%  39°F  47°F  29.99"
Tue 10:00 AM  68.8°F  67°F  4 mph SW  3 mph  5 mph  0.00"  48%  52%  48°F  48°F  29.99"
Tue 09:00 AM  63.3°F  63°F  2 mph W  2 mph  3 mph  0.00"  61%  61%  49°F  49°F  29.99"
Tue 08:00 AM  58.1°F  58°F  2 mph SW  2 mph  3 mph  0.00"  72%  69%  49°F  48°F  30.01"
Tue 07:00 AM  53.1°F  55°F  calm  1 mph  2 mph  0.00"  74%  74%  45°F  47°F  30.00"
Tue 06:00 AM  53.2°F  55°F  1 mph E  1 mph  3 mph  0.00"  74%  73%  45°F  46°F  29.98"
Tue 05:00 AM  54.4°F  56°F  calm  1 mph  4 mph  0.00"  70%  72%  44°F  47°F  29.97"
Tue 04:00 AM  55.5°F  56°F  1 mph E  2 mph  3 mph  0.00"  68%  71%  44°F  47°F  29.96"
Tue 03:00 AM  58.0°F  57°F  calm  2 mph  3 mph  0.00"  65%  70%  46°F  47°F  29.96"
Tue 02:00 AM  58.9°F  58°F  1 mph E  2 mph  3 mph  0.00"  60%  68%  45°F  47°F  29.98"
Tue 01:00 AM  61.1°F  59°F  calm  2 mph  2 mph  0.00"  57%  66%  45°F  47°F  29.99"
Tue 12:00 AM  63.1°F  60°F  calm  2 mph  2 mph  0.00"  53%  63%  45°F  47°F  29.99"
Mon 11:00 PM  66.2°F  62°F  2 mph SE  2 mph  5 mph  0.00"  49%  60%  46°F  47°F  29.99"
Mon 10:00 PM  67.6°F  64°F  2 mph SW  2 mph  5 mph  0.00"  45%  55%  45°F  47°F  30.00"
Mon 09:00 PM  69.3°F  66°F  4 mph W  3 mph  7 mph  0.00"  40%  51%  43°F  47°F  29.98"
Mon 08:00 PM  72.3°F  68°F  5 mph W  5 mph  10 mph  0.00"  31%  47%  39°F  46°F  29.95"
Mon 07:00 PM  77.1°F  71°F  4 mph W  7 mph  14 mph  0.00"  27%  42%  40°F  46°F  29.93"
Mon 06:00 PM  80.6°F  74°F  10 mph SW  8 mph  19 mph  0.00"  17%  38%  30°F  46°F  29.92"
Mon 05:00 PM  82.5°F  76°F  10 mph SW  9 mph  20 mph  0.00"  21%  35%  37°F  45°F  29.91"
Mon 04:00 PM  84.0°F  77°F  9 mph W  8 mph  20 mph  0.00"  22%  34%  40°F  45°F  29.91"

  1. Current weather data. No green row appears if the current weather data is also the high or low for the current day.
  2. High temperature for the current day.
  3. Low temperature for the current day.

The Riverside (Presidential Park), California weather pages are a service of WeatherCurrents.
Copyright ©Wed Apr 25 03:37:14 PDT 2018  WeatherCurrents. All rights reserved. - Submit questions and comments - Privacy Policy

This page automatically refreshes every 10 minutes.